Bei Facebook empfehlenBei Twitter postenGoogle plusPinterest

Das Wetter im Erzgebirge am 26.04.2016

Wetter und Klima am 26.04.2016 Holzhau im Erzgebirge (630m ü.NN)
Letzte gemessene Temperatur und Uhrzeit der Messung23:45:00 Uhr-0.70 °C
Temperatur (Maximum / Höchstwert) und Uhrzeit der Messung16:45:00 Uhr6.30 °C
Temperatur (Minimum / Tiefstwert) und Uhrzeit der Messung21:30:00-1.60 °C
Errechneter Absolutwert der Temperaturschwankungen zwischen Tmin und Tmax des Tages7.90 K
Errechnete Tagesmitteltemperatur1.72188 °C
Gesamt - Niederschlag des Tages (in flüssiger Form)3.11 Liter / m²
Luftdruck (Maximum / Höchstwert) und Zeitpunkt der Messung00:00:00 Uhr999.50 hPa
Luftdruck (Minimum / Tiefstwert) und Zeitpunkt der Messung08:15:00 Uhr994.80 hPa
Errechneter Absolutwert der Luftdruckschwankungen des Tages4.70 hPa
Höchste gemessene Windgeschwindigkeit und Uhrzeit der Messung23:45:00 Uhr0.00 km/h
Errechnete Windhäufigkeit in Relation zu den Messwerten des Tages0.00000 %
Niedrigste Windkühle (Windchill) und Zeitpunkt der Messung21:30:00 Uhr-1.60 °C
Taupunkt (Maximum / Höchstwert) und Uhrzeit der Messung12:00:00 Uhr2.70 °C
Taupunkt (Minimum / Tiefstwert) und Uhrzeit der Messung20:45:00-5.60 °C
Anzahl der automatisch eingelesenen Messwerte 96

Detaillierte Wetter- und Klima- Messwerte für den 26.04.2016 in Holzhau im Erzgebirge (630m ü.NN)
ZeitTemperaturLuftdruckRel. LuftfeuchteWindWindrichtungWindchillTaupunktNiederschlag l/m²
23:45:00-0.70 °C997.80 hPa81.00 %-3.90 °C3.11
23:30:00-1.00 °C998.10 hPa81.00 %-4.20 °C3.11
23:15:00-1.00 °C998.30 hPa80.00 %-4.40 °C3.11
23:00:00-0.60 °C998.40 hPa80.00 %-4.00 °C3.11
22:45:00-0.70 °C998.50 hPa81.00 %-3.90 °C3.11
22:30:00-1.10 °C998.30 hPa81.00 %-4.30 °C3.11
22:15:00-1.10 °C998.10 hPa80.00 %-4.50 °C3.11
22:00:00-1.30 °C998.00 hPa80.00 %-4.70 °C3.11
21:45:00-1.40 °C998.40 hPa79.00 %-4.90 °C3.11
21:30:00-1.60 °C998.50 hPa79.00 %-5.10 °C3.11
21:15:00-1.60 °C998.80 hPa78.00 %-5.30 °C3.11
21:00:00-1.60 °C998.70 hPa77.00 %-5.50 °C3.11
20:45:00-1.30 °C998.70 hPa75.00 %-5.60 °C3.11
20:30:00-0.80 °C998.70 hPa74.00 %-5.30 °C3.11
20:15:00-0.10 °C998.80 hPa73.00 %-4.80 °C3.11
20:00:000.20 °C998.40 hPa72.00 %-4.20 °C3.11
19:45:000.60 °C998.60 hPa70.00 %-4.20 °C3.11
19:30:001.10 °C998.40 hPa68.00 %-4.10 °C3.11
19:15:002.10 °C998.60 hPa67.00 %-3.40 °C3.11
19:00:003.00 °C998.60 hPa65.00 %-2.90 °C3.11
18:45:003.60 °C998.70 hPa65.00 %-2.30 °C3.11
18:30:004.40 °C998.30 hPa64.00 %-1.80 °C3.11
18:15:004.50 °C998.40 hPa63.00 %-1.90 °C3.11
18:00:004.60 °C998.30 hPa62.00 %-2.00 °C3.11
17:45:004.80 °C998.10 hPa61.00 %-2.10 °C3.11
17:30:005.40 °C998.10 hPa61.00 %-1.50 °C3.11
17:15:005.60 °C998.10 hPa62.00 %-1.10 °C3.11
17:00:005.80 °C997.90 hPa64.00 %-0.50 °C3.11
16:45:006.30 °C997.80 hPa67.00 %0.60 °C3.11
16:30:005.40 °C997.90 hPa68.00 %0.00 °C3.11
16:15:005.80 °C997.80 hPa69.00 %0.60 °C3.11
16:00:006.10 °C997.60 hPa72.00 %1.40 °C3.11
15:45:005.50 °C997.80 hPa76.00 %1.60 °C3.11
15:30:005.50 °C997.60 hPa79.00 %2.20 °C3.11
15:15:004.70 °C997.40 hPa80.00 %1.60 °C3.11
15:00:004.20 °C997.40 hPa82.00 %1.40 °C3.11
14:45:003.90 °C997.30 hPa82.00 %1.10 °C3.11
14:30:003.60 °C997.30 hPa84.00 %1.20 °C3.11
14:15:002.90 °C997.50 hPa86.00 %0.80 °C3.11
14:00:001.80 °C997.70 hPa86.00 %-0.30 °C3.11
13:45:001.30 °C997.70 hPa84.00 %-1.10 °C2.59
13:30:002.90 °C997.20 hPa84.00 %0.50 °C2.59
13:15:003.20 °C997.30 hPa86.00 %1.10 °C2.59
13:00:002.30 °C997.50 hPa86.00 %0.20 °C2.59
12:45:001.90 °C997.10 hPa84.00 %-0.50 °C2.59
12:30:002.80 °C997.00 hPa84.00 %0.40 °C2.59
12:15:003.80 °C996.40 hPa86.00 %1.70 °C2.59
12:00:004.50 °C996.20 hPa88.00 %2.70 °C2.59
11:45:003.50 °C996.20 hPa90.00 %2.00 °C2.59
11:30:002.30 °C996.20 hPa90.00 %0.80 °C2.59
11:15:002.80 °C996.10 hPa90.00 %1.30 °C2.59
11:00:002.20 °C996.30 hPa90.00 %0.70 °C2.59
10:45:001.80 °C996.30 hPa90.00 %0.30 °C2.59
10:30:001.60 °C996.20 hPa90.00 %0.10 °C2.59
10:15:001.80 °C995.90 hPa90.00 %0.30 °C2.59
10:00:001.80 °C995.50 hPa90.00 %0.30 °C2.08
09:45:001.80 °C995.60 hPa89.00 %0.20 °C1.56
09:30:001.90 °C995.40 hPa88.00 %0.10 °C1.04
09:15:002.60 °C995.30 hPa89.00 %1.00 °C1.04
09:00:003.30 °C994.90 hPa89.00 %1.70 °C1.04
08:45:003.30 °C995.10 hPa90.00 %1.80 °C1.04
08:30:003.00 °C995.00 hPa90.00 %1.50 °C1.04
08:15:002.40 °C994.80 hPa90.00 %0.90 °C1.04
08:00:002.30 °C995.00 hPa90.00 %0.80 °C1.04
07:45:001.80 °C995.20 hPa90.00 %0.30 °C1.04
07:30:001.80 °C995.10 hPa90.00 %0.30 °C1.04
07:15:001.80 °C995.10 hPa90.00 %0.30 °C1.04
07:00:001.60 °C995.20 hPa90.00 %0.10 °C0.52
06:45:001.80 °C995.20 hPa90.00 %0.30 °C0.52
06:30:001.40 °C995.20 hPa90.00 %-0.10 °C0.52
06:15:001.30 °C995.40 hPa89.00 %-0.30 °C 
06:00:001.00 °C995.50 hPa89.00 %-0.60 °C 
05:45:000.80 °C995.60 hPa89.00 %-0.80 °C 
05:30:000.80 °C995.60 hPa89.00 %-0.80 °C 
05:15:000.80 °C995.70 hPa89.00 %-0.80 °C 
05:00:000.60 °C995.90 hPa89.00 %-1.00 °C 
04:45:000.50 °C996.00 hPa89.00 %-1.10 °C 
04:30:000.50 °C996.20 hPa88.00 %-1.30 °C 
04:15:000.40 °C996.20 hPa88.00 %-1.30 °C 
04:00:000.40 °C996.20 hPa88.00 %-1.30 °C 
03:45:000.40 °C996.50 hPa87.00 %-1.50 °C 
03:30:000.40 °C996.80 hPa87.00 %-1.50 °C 
03:15:000.40 °C996.70 hPa87.00 %-1.50 °C 
03:00:000.40 °C996.60 hPa87.00 %-1.50 °C 
02:45:000.50 °C997.00 hPa86.00 %-1.60 °C 
02:30:000.50 °C997.40 hPa86.00 %-1.60 °C 
02:15:000.30 °C997.30 hPa85.00 %-1.90 °C 
02:00:000.30 °C997.70 hPa85.00 %-1.90 °C 
01:45:000.20 °C997.90 hPa84.00 %-2.20 °C 
01:30:000.20 °C998.00 hPa84.00 %-2.20 °C 
01:15:00-0.10 °C998.30 hPa84.00 %-2.80 °C 
01:00:00-0.20 °C998.80 hPa84.00 %-2.80 °C 
00:45:00-0.10 °C998.80 hPa84.00 %-2.80 °C 
00:30:00-0.20 °C999.10 hPa84.00 %-2.80 °C 
00:15:00-0.50 °C999.30 hPa83.00 %-3.30 °C 
00:00:00-1.10 °C999.50 hPa83.00 %-3.90 °C 

Permanenter Link zu dieser Seite: Wetter im Erzgebirge am 26.04.2016
Performance-Info: Die Erstellung der Seite / Statistik(en) / Tabelle(n) erforderte 5 Datenbankserver-Abfrage(n) und dauerte 99 Millisekunden. (Dieser Messwert ist von der Gesamt-Auslastung des Servers abhängig.)
Erzgebirge - Wetter | Erzgebirge - Wetter (Mobilgeräte) | Komplette Klimadatenbank